createdAt,value
2019-05-06T00:00:17.730Z,66.36
2019-05-06T00:01:17.711Z,66.02
2019-05-06T00:02:17.787Z,65.95
2019-05-06T00:03:17.729Z,65.58
2019-05-06T00:04:17.707Z,66.58
2019-05-06T00:05:17.764Z,66.43
2019-05-06T00:06:17.711Z,66.71
2019-05-06T00:07:17.715Z,65.67
2019-05-06T00:08:17.738Z,65.64
2019-05-06T00:09:17.765Z,66.08
2019-05-06T00:10:17.716Z,65.58
2019-05-06T00:11:17.777Z,65.27
2019-05-06T00:12:17.729Z,66.04
2019-05-06T00:13:17.713Z,65.75
2019-05-06T00:14:17.793Z,66.06
2019-05-06T00:15:17.735Z,65.63
2019-05-06T00:16:17.760Z,65.83
2019-05-06T00:17:17.776Z,65.84
2019-05-06T00:18:17.709Z,65.37
2019-05-06T00:19:17.737Z,65.17
2019-05-06T00:20:17.767Z,64.87
2019-05-06T00:21:17.751Z,65.00
2019-05-06T00:22:17.755Z,66.17
2019-05-06T00:23:17.726Z,66.55
2019-05-06T00:24:17.735Z,66.05
2019-05-06T00:25:17.776Z,66.01
2019-05-06T00:26:17.801Z,66.78
2019-05-06T00:27:17.750Z,67.54
2019-05-06T00:28:17.750Z,66.23
2019-05-06T00:29:17.736Z,65.92
2019-05-06T00:30:17.757Z,66.52
2019-05-06T00:31:17.754Z,65.73
2019-05-06T00:32:17.809Z,66.52
2019-05-06T00:33:17.770Z,66.75
2019-05-06T00:34:17.748Z,66.90
2019-05-06T00:35:17.779Z,66.91
2019-05-06T00:36:17.776Z,66.80
2019-05-06T00:37:17.770Z,67.49
2019-05-06T00:38:17.738Z,67.17
2019-05-06T00:39:17.757Z,67.40
2019-05-06T00:40:17.744Z,67.90
2019-05-06T00:41:17.783Z,67.70
2019-05-06T00:42:17.765Z,67.91
2019-05-06T00:43:17.753Z,68.28
2019-05-06T00:44:17.786Z,67.30
2019-05-06T00:45:17.749Z,68.04
2019-05-06T00:46:17.770Z,67.63
2019-05-06T00:47:17.792Z,68.19
2019-05-06T00:48:17.744Z,68.72
2019-05-06T00:49:17.779Z,68.91
2019-05-06T00:50:17.819Z,69.02
2019-05-06T00:51:17.760Z,68.77
2019-05-06T00:52:17.751Z,68.59
2019-05-06T00:53:17.796Z,68.82
2019-05-06T00:54:17.759Z,68.84
2019-05-06T00:55:17.749Z,69.47
2019-05-06T00:56:17.799Z,68.99
2019-05-06T00:57:17.794Z,69.12
2019-05-06T00:58:17.752Z,69.51
2019-05-06T00:59:17.824Z,69.27
2019-05-06T01:00:17.798Z,69.03
2019-05-06T01:01:26.910Z,68.93
2019-05-06T01:02:17.772Z,68.99
2019-05-06T01:03:17.780Z,70.11
2019-05-06T01:04:17.767Z,69.78
2019-05-06T01:05:17.833Z,70.52
2019-05-06T01:06:17.800Z,70.10
2019-05-06T01:07:17.772Z,69.98
2019-05-06T01:08:17.802Z,70.58
2019-05-06T01:09:17.766Z,70.82
2019-05-06T01:10:17.852Z,71.23
2019-05-06T01:11:17.818Z,72.01
2019-05-06T01:12:17.792Z,71.28
2019-05-06T01:13:17.763Z,70.52
2019-05-06T01:14:17.820Z,71.03
2019-05-06T01:15:17.783Z,71.52
2019-05-06T01:16:17.784Z,71.97
2019-05-06T01:17:17.791Z,72.99
2019-05-06T01:18:17.796Z,71.94
2019-05-06T01:19:17.765Z,72.26
2019-05-06T01:20:17.757Z,72.19
2019-05-06T01:21:17.766Z,72.39
2019-05-06T01:22:17.777Z,72.18
2019-05-06T01:23:17.815Z,72.63
2019-05-06T01:24:17.775Z,72.78
2019-05-06T01:25:17.782Z,72.82
2019-05-06T01:26:17.775Z,73.75
2019-05-06T01:27:17.786Z,73.27
2019-05-06T01:28:17.823Z,72.82
2019-05-06T01:29:17.810Z,73.00
2019-05-06T01:30:17.802Z,72.79
2019-05-06T01:31:17.792Z,73.27
2019-05-06T01:32:17.783Z,73.76
2019-05-06T01:33:17.798Z,73.61
2019-05-06T01:34:17.855Z,73.85
2019-05-06T01:35:17.824Z,74.20
2019-05-06T01:36:17.765Z,74.38
2019-05-06T01:37:17.787Z,73.89
2019-05-06T01:38:17.823Z,74.11
2019-05-06T01:39:17.814Z,74.26
2019-05-06T01:40:17.775Z,74.51
2019-05-06T01:41:17.789Z,74.89
2019-05-06T01:42:17.793Z,75.26
2019-05-06T01:43:17.850Z,74.61
2019-05-06T01:44:17.842Z,73.94
2019-05-06T01:45:17.811Z,74.50
2019-05-06T01:46:17.784Z,74.63
2019-05-06T01:47:17.823Z,74.92
2019-05-06T01:48:17.800Z,74.58
2019-05-06T01:49:17.809Z,74.26
2019-05-06T01:50:17.806Z,74.09
2019-05-06T01:51:17.809Z,74.09
2019-05-06T01:52:17.784Z,74.71
2019-05-06T01:53:17.824Z,75.12
2019-05-06T01:54:17.783Z,74.74
2019-05-06T01:55:17.777Z,75.09
2019-05-06T01:56:17.851Z,75.42
2019-05-06T01:57:17.805Z,75.43
2019-05-06T01:58:17.796Z,75.65
2019-05-06T01:59:17.810Z,75.86
2019-05-06T02:00:17.829Z,75.78
2019-05-06T02:01:17.802Z,75.45
2019-05-06T02:02:17.822Z,75.89
2019-05-06T02:03:17.816Z,76.20
2019-05-06T02:04:17.796Z,76.61
2019-05-06T02:05:17.812Z,77.08
2019-05-06T02:06:17.829Z,76.89
2019-05-06T02:07:17.804Z,76.77
2019-05-06T02:08:17.837Z,76.94
2019-05-06T02:09:17.826Z,76.66
2019-05-06T02:10:17.800Z,77.21
2019-05-06T02:11:17.823Z,77.23
2019-05-06T02:12:17.812Z,77.12
2019-05-06T02:13:17.837Z,77.47
2019-05-06T02:14:17.852Z,77.59
2019-05-06T02:15:17.820Z,77.47
2019-05-06T02:16:17.796Z,77.45
2019-05-06T02:17:17.841Z,77.66
2019-05-06T02:18:17.802Z,77.35
2019-05-06T02:19:17.791Z,77.48
2019-05-06T02:20:17.837Z,77.13
2019-05-06T02:21:17.813Z,77.52
2019-05-06T02:22:17.816Z,77.18
2019-05-06T02:23:17.803Z,77.42
2019-05-06T02:24:17.829Z,77.49
2019-05-06T02:25:17.805Z,77.38
2019-05-06T02:26:17.817Z,76.62
2019-05-06T02:27:17.817Z,76.94
2019-05-06T02:28:17.817Z,76.63
2019-05-06T02:29:17.828Z,76.84
2019-05-06T02:30:17.821Z,76.90
2019-05-06T02:31:17.834Z,77.00
2019-05-06T02:32:26.064Z,76.85
2019-05-06T02:33:17.880Z,76.68
2019-05-06T02:34:17.818Z,77.17
2019-05-06T02:35:17.877Z,76.59
2019-05-06T02:36:17.856Z,76.67
2019-05-06T02:37:17.840Z,76.91
2019-05-06T02:38:17.839Z,77.11
2019-05-06T02:39:17.818Z,77.59
2019-05-06T02:40:17.889Z,77.49
2019-05-06T02:41:17.837Z,77.55
2019-05-06T02:42:17.828Z,77.13
2019-05-06T02:43:17.866Z,77.15
2019-05-06T02:44:17.855Z,77.36
2019-05-06T02:45:17.821Z,77.38
2019-05-06T02:46:17.831Z,77.44
2019-05-06T02:47:17.828Z,77.11
2019-05-06T02:48:17.853Z,77.46
2019-05-06T02:49:17.852Z,78.12
2019-05-06T02:50:17.837Z,77.61
2019-05-06T02:51:17.836Z,77.65
2019-05-06T02:52:17.837Z,77.34
2019-05-06T02:53:17.861Z,77.70
2019-05-06T02:54:17.825Z,77.51
2019-05-06T02:55:17.902Z,77.14
2019-05-06T02:56:17.874Z,77.96
2019-05-06T02:57:17.836Z,77.89
2019-05-06T02:58:17.846Z,77.98
2019-05-06T02:59:17.874Z,78.21
2019-05-06T03:00:17.867Z,77.80
2019-05-06T03:01:17.835Z,77.47
2019-05-06T03:02:37.547Z,77.71
2019-05-06T03:03:17.828Z,77.40
2019-05-06T03:04:17.840Z,77.55
2019-05-06T03:05:17.866Z,77.40
2019-05-06T03:06:17.873Z,77.01
2019-05-06T03:07:17.843Z,77.19
2019-05-06T03:08:17.891Z,77.26
2019-05-06T03:09:17.837Z,76.74
2019-05-06T03:10:17.842Z,76.79
2019-05-06T03:11:17.851Z,76.65
2019-05-06T03:12:17.857Z,76.33
2019-05-06T03:13:17.843Z,76.47
2019-05-06T03:14:17.855Z,76.00
2019-05-06T03:15:17.864Z,76.50
2019-05-06T03:16:17.846Z,76.52
2019-05-06T03:17:17.911Z,76.41
2019-05-06T03:18:17.858Z,76.09
2019-05-06T03:19:17.863Z,75.82
2019-05-06T03:20:17.881Z,75.86
2019-05-06T03:21:17.869Z,75.29
2019-05-06T03:22:17.844Z,75.39
2019-05-06T03:23:17.872Z,75.64
2019-05-06T03:24:17.880Z,75.68
2019-05-06T03:25:17.868Z,75.54
2019-05-06T03:26:17.879Z,75.13
2019-05-06T03:27:17.866Z,74.85
2019-05-06T03:28:17.859Z,75.14
2019-05-06T03:29:17.909Z,75.61
2019-05-06T03:30:17.876Z,75.58
2019-05-06T03:31:17.870Z,75.82
2019-05-06T03:32:24.851Z,75.40
2019-05-06T03:33:40.055Z,75.66
2019-05-06T03:35:33.764Z,75.28
2019-05-06T03:36:25.675Z,75.38
2019-05-06T03:37:17.890Z,75.45
2019-05-06T03:38:17.877Z,75.88
2019-05-06T03:39:17.877Z,76.24
2019-05-06T03:40:17.867Z,76.54
2019-05-06T03:41:17.871Z,76.60
2019-05-06T03:42:17.863Z,76.16
2019-05-06T03:43:17.867Z,75.95
2019-05-06T03:44:17.864Z,75.33
2019-05-06T03:45:17.880Z,74.66
2019-05-06T03:46:17.869Z,74.96
2019-05-06T03:47:17.867Z,74.11
2019-05-06T03:48:17.885Z,73.87
2019-05-06T03:49:17.860Z,73.96
2019-05-06T03:50:17.859Z,74.00
2019-05-06T03:51:17.897Z,73.30
2019-05-06T03:52:17.911Z,73.06
2019-05-06T03:53:17.869Z,73.54
2019-05-06T03:54:17.890Z,73.41
2019-05-06T03:55:17.893Z,73.33
2019-05-06T03:56:19.867Z,73.31
2019-05-06T03:57:17.886Z,73.86
2019-05-06T03:58:17.871Z,73.72
2019-05-06T03:59:17.908Z,74.45
2019-05-06T04:00:17.886Z,73.78
2019-05-06T04:01:17.890Z,73.15
2019-05-06T04:02:17.878Z,73.20
2019-05-06T04:03:17.877Z,73.23
2019-05-06T04:04:17.932Z,73.21
2019-05-06T04:05:17.905Z,73.05
2019-05-06T04:06:17.875Z,73.00
2019-05-06T04:07:17.907Z,72.75
2019-05-06T04:08:20.224Z,73.00
2019-05-06T04:09:17.908Z,73.09
2019-05-06T04:10:17.881Z,73.90
2019-05-06T04:11:17.903Z,73.95
2019-05-06T04:12:17.908Z,73.73
2019-05-06T04:13:17.933Z,74.12
2019-05-06T04:14:17.903Z,73.72
2019-05-06T04:15:17.885Z,73.44
2019-05-06T04:16:17.879Z,73.34
2019-05-06T04:17:17.895Z,73.40
2019-05-06T04:18:17.934Z,73.38
2019-05-06T04:19:17.899Z,72.79
2019-05-06T04:20:17.920Z,73.50
2019-05-06T04:21:17.888Z,73.25
2019-05-06T04:22:17.912Z,73.61
2019-05-06T04:23:17.945Z,73.20
2019-05-06T04:24:17.897Z,72.88
2019-05-06T04:25:17.911Z,72.23
2019-05-06T04:26:17.887Z,72.20
2019-05-06T04:27:17.906Z,72.46
2019-05-06T04:28:17.901Z,72.57
2019-05-06T04:29:17.941Z,72.77
2019-05-06T04:30:17.911Z,72.80
2019-05-06T04:31:17.882Z,73.03
2019-05-06T04:32:17.933Z,74.10
2019-05-06T04:33:17.951Z,73.75
2019-05-06T04:34:19.660Z,74.08
2019-05-06T04:35:17.935Z,74.11
2019-05-06T04:36:17.898Z,74.04
2019-05-06T04:37:17.893Z,73.27
2019-05-06T04:38:17.914Z,73.51
2019-05-06T04:39:17.919Z,73.05
2019-05-06T04:40:17.896Z,72.08
2019-05-06T04:41:17.935Z,72.45
2019-05-06T04:42:17.899Z,72.69
2019-05-06T04:43:17.890Z,72.86
2019-05-06T04:44:17.900Z,72.35
2019-05-06T04:45:17.921Z,72.18
2019-05-06T04:46:17.935Z,71.93
2019-05-06T04:47:17.938Z,71.40
2019-05-06T04:48:17.933Z,71.76
2019-05-06T04:49:17.899Z,71.62
2019-05-06T04:50:17.945Z,71.19
2019-05-06T04:51:17.917Z,70.72
2019-05-06T04:52:17.939Z,71.46
2019-05-06T04:53:17.912Z,70.37
2019-05-06T04:54:17.930Z,69.97
2019-05-06T04:55:17.922Z,69.71
2019-05-06T04:56:17.943Z,70.25
2019-05-06T04:57:17.936Z,70.41
2019-05-06T04:58:17.987Z,70.43
2019-05-06T04:59:17.957Z,70.25
2019-05-06T05:00:17.908Z,70.33
2019-05-06T05:01:17.919Z,70.25
2019-05-06T05:02:17.927Z,70.07
2019-05-06T05:03:17.900Z,69.98
2019-05-06T05:04:28.188Z,70.47
2019-05-06T05:05:17.885Z,70.26
2019-05-06T05:06:17.920Z,70.19
2019-05-06T05:07:17.950Z,69.85
2019-05-06T05:08:17.903Z,70.10
2019-05-06T05:09:17.947Z,70.19
2019-05-06T05:10:17.934Z,69.35
2019-05-06T05:11:17.953Z,69.83
2019-05-06T05:12:17.915Z,69.41
2019-05-06T05:13:17.913Z,69.84
2019-05-06T05:14:21.666Z,69.87
2019-05-06T05:15:17.930Z,69.27
2019-05-06T05:16:17.929Z,69.83
2019-05-06T05:17:17.972Z,68.90
2019-05-06T05:18:17.913Z,68.89
2019-05-06T05:19:17.924Z,69.00
2019-05-06T05:20:17.941Z,68.86
2019-05-06T05:21:17.932Z,69.70
2019-05-06T05:22:17.951Z,69.23
2019-05-06T05:23:17.973Z,69.20
2019-05-06T05:24:17.932Z,69.21
2019-05-06T05:25:17.935Z,69.24
2019-05-06T05:26:17.948Z,68.99
2019-05-06T05:27:17.945Z,69.67
2019-05-06T05:28:17.938Z,68.97
2019-05-06T05:29:17.908Z,69.55
2019-05-06T05:30:17.941Z,69.42
2019-05-06T05:31:17.947Z,69.29
2019-05-06T05:32:17.898Z,69.32
2019-05-06T05:33:17.931Z,68.74
2019-05-06T05:34:17.972Z,69.43
2019-05-06T05:35:17.976Z,69.30
2019-05-06T05:36:17.946Z,69.20
2019-05-06T05:37:17.917Z,69.04
2019-05-06T05:38:17.964Z,69.47
2019-05-06T05:39:17.948Z,68.99
2019-05-06T05:40:17.954Z,68.72
2019-05-06T05:41:17.986Z,69.21
2019-05-06T05:42:17.952Z,68.92
2019-05-06T05:43:17.983Z,68.70
2019-05-06T05:44:17.933Z,68.09
2019-05-06T05:45:18.000Z,68.78
2019-05-06T05:46:17.983Z,68.43
2019-05-06T05:47:17.965Z,69.08
2019-05-06T05:48:17.949Z,69.80
2019-05-06T05:49:20.140Z,69.05
2019-05-06T05:50:17.999Z,68.41
2019-05-06T05:51:17.942Z,67.73
2019-05-06T05:52:17.981Z,67.61
2019-05-06T05:53:17.956Z,68.15
2019-05-06T05:54:17.950Z,68.46
2019-05-06T05:55:17.980Z,67.82
2019-05-06T05:56:17.937Z,66.49
2019-05-06T05:57:17.939Z,67.95
2019-05-06T05:58:17.947Z,67.47
2019-05-06T05:59:17.950Z,67.32
2019-05-06T06:00:17.938Z,67.25
2019-05-06T06:01:17.943Z,67.11
2019-05-06T06:02:17.922Z,67.13
2019-05-06T06:03:17.962Z,66.95
2019-05-06T06:04:17.957Z,66.94
2019-05-06T06:05:17.955Z,66.98
2019-05-06T06:06:18.002Z,68.92
2019-05-06T06:07:17.953Z,66.95
2019-05-06T06:08:17.987Z,67.63
2019-05-06T06:09:17.967Z,66.51
2019-05-06T06:10:18.041Z,67.14
2019-05-06T06:11:18.015Z,66.92
2019-05-06T06:12:17.971Z,66.18
2019-05-06T06:13:17.951Z,65.94
2019-05-06T06:14:17.984Z,67.90
2019-05-06T06:15:17.955Z,67.80
2019-05-06T06:16:17.981Z,66.42
2019-05-06T06:17:17.994Z,65.48
2019-05-06T06:18:17.975Z,66.79
2019-05-06T06:19:17.970Z,66.84
2019-05-06T06:20:17.967Z,67.04
2019-05-06T06:21:23.125Z,65.82
2019-05-06T06:22:17.988Z,67.15
2019-05-06T06:23:18.011Z,66.13
2019-05-06T06:24:17.956Z,66.03
2019-05-06T06:25:18.023Z,65.89
2019-05-06T06:26:17.994Z,66.45
2019-05-06T06:27:17.991Z,66.10
2019-05-06T06:28:17.964Z,66.15
2019-05-06T06:29:17.960Z,66.06
2019-05-06T06:30:17.981Z,66.66
2019-05-06T06:31:18.042Z,66.16
2019-05-06T06:32:18.025Z,66.50
2019-05-06T06:33:17.990Z,67.22
2019-05-06T06:34:18.025Z,68.10
2019-05-06T06:35:19.202Z,67.41
2019-05-06T06:36:17.990Z,67.02
2019-05-06T06:37:18.065Z,66.87
2019-05-06T06:38:17.984Z,66.23
2019-05-06T06:39:17.979Z,66.55
2019-05-06T06:40:18.042Z,67.33
2019-05-06T06:41:18.041Z,67.34
2019-05-06T06:42:18.014Z,67.52
2019-05-06T06:43:18.051Z,66.42
2019-05-06T06:44:18.023Z,66.74
2019-05-06T06:45:17.991Z,66.70
2019-05-06T06:46:18.012Z,66.53
2019-05-06T06:47:18.011Z,66.41
2019-05-06T06:48:18.004Z,66.38
2019-05-06T06:49:18.050Z,66.42
2019-05-06T06:50:17.989Z,66.68
2019-05-06T06:51:17.991Z,66.55
2019-05-06T06:52:18.052Z,66.65
2019-05-06T06:53:18.021Z,66.39
2019-05-06T06:54:18.011Z,67.28
2019-05-06T06:55:18.602Z,65.72
2019-05-06T06:56:17.994Z,66.40
2019-05-06T06:57:18.002Z,67.14
2019-05-06T06:58:18.077Z,67.69
2019-05-06T06:59:18.053Z,66.75
2019-05-06T07:00:18.043Z,66.67
2019-05-06T07:01:18.064Z,68.46
2019-05-06T07:02:18.007Z,67.11
2019-05-06T07:03:17.987Z,66.70
2019-05-06T07:04:18.045Z,66.64
2019-05-06T07:05:27.678Z,67.78
2019-05-06T07:06:18.008Z,68.09
2019-05-06T07:07:18.017Z,66.93
2019-05-06T07:08:31.368Z,66.72
2019-05-06T07:09:18.010Z,66.73
2019-05-06T07:10:18.060Z,67.16
2019-05-06T07:11:18.015Z,66.40
2019-05-06T07:12:18.049Z,67.40
2019-05-06T07:13:18.019Z,66.04
2019-05-06T07:14:18.038Z,65.96
2019-05-06T07:15:18.009Z,65.60
2019-05-06T07:16:20.482Z,65.87
2019-05-06T07:17:18.070Z,66.47
2019-05-06T07:18:18.024Z,65.11
2019-05-06T07:19:18.066Z,65.67
2019-05-06T07:20:18.008Z,65.41
2019-05-06T07:21:18.045Z,64.78
2019-05-06T07:22:18.078Z,64.89
2019-05-06T07:23:18.015Z,64.68
2019-05-06T07:24:18.000Z,63.99
2019-05-06T07:25:18.068Z,64.02
2019-05-06T07:26:18.027Z,64.39
2019-05-06T07:27:18.011Z,63.94
2019-05-06T07:28:18.015Z,63.62
2019-05-06T07:29:23.607Z,63.37
2019-05-06T07:30:18.035Z,63.60
2019-05-06T07:31:22.206Z,64.27
2019-05-06T07:32:18.072Z,64.22
2019-05-06T07:33:18.022Z,63.14
2019-05-06T07:34:18.082Z,63.67
2019-05-06T07:35:18.016Z,64.10
2019-05-06T07:36:20.116Z,63.60
2019-05-06T07:37:18.078Z,64.99
2019-05-06T07:38:18.057Z,62.58
2019-05-06T07:39:18.090Z,62.63
2019-05-06T07:40:18.093Z,62.47
2019-05-06T07:41:18.055Z,62.34
2019-05-06T07:42:18.036Z,62.98
2019-05-06T07:43:18.057Z,61.77
2019-05-06T07:44:18.056Z,61.67
2019-05-06T07:45:18.025Z,62.65
2019-05-06T07:46:18.088Z,62.04
2019-05-06T07:47:18.052Z,61.56
2019-05-06T07:48:18.048Z,61.10
2019-05-06T07:49:18.091Z,60.68
2019-05-06T07:50:18.077Z,62.10
2019-05-06T07:51:18.021Z,62.24
2019-05-06T07:52:18.093Z,60.61
2019-05-06T07:53:18.072Z,59.72
2019-05-06T07:54:18.039Z,61.83
2019-05-06T07:55:18.045Z,60.90
2019-05-06T07:56:18.043Z,61.54
2019-05-06T07:57:18.028Z,60.59
2019-05-06T07:58:18.031Z,60.46
2019-05-06T07:59:18.064Z,61.58
2019-05-06T08:00:18.066Z,60.42
2019-05-06T08:01:18.042Z,60.65
2019-05-06T08:02:18.024Z,60.54
2019-05-06T08:03:18.035Z,61.85
2019-05-06T08:04:18.037Z,60.15
2019-05-06T08:05:18.059Z,60.86
2019-05-06T08:06:18.072Z,60.39
2019-05-06T08:07:18.095Z,58.98
2019-05-06T08:08:18.081Z,60.05
2019-05-06T08:09:18.049Z,60.02
2019-05-06T08:10:18.072Z,58.01
2019-05-06T08:11:18.081Z,59.77
2019-05-06T08:12:18.102Z,58.81
2019-05-06T08:13:18.065Z,58.76
2019-05-06T08:14:18.078Z,59.50
2019-05-06T08:15:18.065Z,58.89
2019-05-06T08:16:18.071Z,58.94
2019-05-06T08:17:18.107Z,58.42
2019-05-06T08:18:18.051Z,58.89
2019-05-06T08:19:18.070Z,57.85
2019-05-06T08:20:18.106Z,58.92
2019-05-06T08:21:18.045Z,59.90
2019-05-06T08:22:18.087Z,58.76
2019-05-06T08:23:18.096Z,59.76
2019-05-06T08:24:18.092Z,58.55
2019-05-06T08:25:18.059Z,60.74
2019-05-06T08:26:18.280Z,58.32
2019-05-06T08:27:18.052Z,59.79
2019-05-06T08:28:18.083Z,58.40
2019-05-06T08:29:18.085Z,61.38
2019-05-06T08:30:18.102Z,58.79
2019-05-06T08:31:18.074Z,59.65
2019-05-06T08:32:18.047Z,57.79
2019-05-06T08:33:18.053Z,57.45
2019-05-06T08:34:18.093Z,57.52
2019-05-06T08:35:18.117Z,57.02
2019-05-06T08:36:18.087Z,57.94
2019-05-06T08:37:18.082Z,58.12
2019-05-06T08:38:18.050Z,58.67
2019-05-06T08:39:18.050Z,57.37
2019-05-06T08:40:18.088Z,57.21
2019-05-06T08:41:18.073Z,59.17
2019-05-06T08:42:18.084Z,56.74
2019-05-06T08:43:18.091Z,56.68
2019-05-06T08:44:18.082Z,58.12
2019-05-06T08:45:18.065Z,59.66
2019-05-06T08:46:18.103Z,57.69
2019-05-06T08:47:18.131Z,57.02
2019-05-06T08:48:18.086Z,57.68
2019-05-06T08:49:18.085Z,55.92
2019-05-06T08:50:18.052Z,57.06
2019-05-06T08:51:18.089Z,57.11
2019-05-06T08:52:18.137Z,55.73
2019-05-06T08:53:18.060Z,56.14
2019-05-06T08:54:18.081Z,56.78
2019-05-06T08:55:18.091Z,56.60
2019-05-06T08:56:18.061Z,57.21
2019-05-06T08:57:18.073Z,56.29
2019-05-06T08:58:18.139Z,58.47
2019-05-06T08:59:18.084Z,55.85
2019-05-06T09:00:18.095Z,56.00
2019-05-06T09:01:18.090Z,55.52
2019-05-06T09:02:18.073Z,55.93
2019-05-06T09:03:18.076Z,55.76
2019-05-06T09:04:18.110Z,56.09
2019-05-06T09:05:18.144Z,55.32
2019-05-06T09:06:29.249Z,55.14
2019-05-06T09:07:18.111Z,55.71
2019-05-06T09:08:18.127Z,56.98
2019-05-06T09:09:18.081Z,56.56
2019-05-06T09:10:18.112Z,56.25
2019-05-06T09:11:18.093Z,55.97
2019-05-06T09:12:18.066Z,56.75
2019-05-06T09:13:18.107Z,57.18
2019-05-06T09:14:18.118Z,56.68
2019-05-06T09:15:18.061Z,56.28
2019-05-06T09:16:18.125Z,56.31
2019-05-06T09:17:18.109Z,56.88
2019-05-06T09:18:18.098Z,56.50
2019-05-06T09:19:18.111Z,56.79
2019-05-06T09:20:18.085Z,57.14
2019-05-06T09:21:18.109Z,57.08
2019-05-06T09:22:18.145Z,57.09
2019-05-06T09:23:18.101Z,57.31
2019-05-06T09:24:18.097Z,57.86
2019-05-06T09:25:18.114Z,58.47
2019-05-06T09:26:18.092Z,57.57
2019-05-06T09:27:18.118Z,57.12
2019-05-06T09:28:18.132Z,57.70
2019-05-06T09:29:18.128Z,57.57
2019-05-06T09:30:18.106Z,56.73
2019-05-06T09:31:18.170Z,57.22
2019-05-06T09:32:18.110Z,57.11
2019-05-06T09:33:18.122Z,57.15
2019-05-06T09:34:18.117Z,56.54
2019-05-06T09:35:18.106Z,55.86
2019-05-06T09:36:18.108Z,56.73
2019-05-06T09:37:18.126Z,58.72
2019-05-06T09:38:18.134Z,56.71
2019-05-06T09:39:18.104Z,55.74
2019-05-06T09:40:18.099Z,55.46
2019-05-06T09:41:18.139Z,56.62
2019-05-06T09:42:18.140Z,56.01
2019-05-06T09:43:18.125Z,55.81
2019-05-06T09:44:18.108Z,55.19
2019-05-06T09:45:18.105Z,55.55
2019-05-06T09:46:18.106Z,55.53
2019-05-06T09:47:18.167Z,54.86
2019-05-06T09:48:18.170Z,54.67
2019-05-06T09:49:18.109Z,54.73
2019-05-06T09:50:18.102Z,54.19
2019-05-06T09:51:18.109Z,54.09
2019-05-06T09:52:18.135Z,53.89
2019-05-06T09:53:18.179Z,52.94
2019-05-06T09:54:18.130Z,52.85
2019-05-06T09:55:18.133Z,52.44
2019-05-06T09:56:18.081Z,55.13
2019-05-06T09:57:18.162Z,53.19
2019-05-06T09:58:18.160Z,52.36
2019-05-06T09:59:18.171Z,52.37
2019-05-06T10:00:18.146Z,53.43
2019-05-06T10:01:18.177Z,55.05
2019-05-06T10:02:18.101Z,52.52
2019-05-06T10:03:18.126Z,53.74
2019-05-06T10:04:18.123Z,53.38
2019-05-06T10:05:18.187Z,55.22
2019-05-06T10:06:18.153Z,53.38
2019-05-06T10:07:18.183Z,52.60
2019-05-06T10:08:18.109Z,53.81
2019-05-06T10:09:18.125Z,54.12
2019-05-06T10:10:18.118Z,51.20
2019-05-06T10:11:18.184Z,54.74
2019-05-06T10:12:18.140Z,52.40
2019-05-06T10:13:18.141Z,52.42
2019-05-06T10:14:18.173Z,51.71
2019-05-06T10:15:18.132Z,51.64
2019-05-06T10:16:18.135Z,51.85
2019-05-06T10:17:18.163Z,51.37
2019-05-06T10:18:18.210Z,51.76
2019-05-06T10:19:18.147Z,51.99
2019-05-06T10:20:18.134Z,50.31
2019-05-06T10:21:18.185Z,50.53
2019-05-06T10:22:18.193Z,50.90
2019-05-06T10:23:18.198Z,51.21
2019-05-06T10:24:18.145Z,52.67
2019-05-06T10:25:18.132Z,50.91
2019-05-06T10:26:18.150Z,51.61
2019-05-06T10:27:18.126Z,51.91
2019-05-06T10:28:18.146Z,51.56
2019-05-06T10:29:18.169Z,51.86
2019-05-06T10:30:18.145Z,51.78
2019-05-06T10:31:18.180Z,51.13
2019-05-06T10:32:18.160Z,50.00
2019-05-06T10:33:18.140Z,49.64
2019-05-06T10:34:18.150Z,49.89
2019-05-06T10:35:18.160Z,53.10
2019-05-06T10:36:18.176Z,51.41
2019-05-06T10:37:19.230Z,50.73
2019-05-06T10:38:18.165Z,49.60
2019-05-06T10:39:18.136Z,50.56
2019-05-06T10:40:18.163Z,50.20
2019-05-06T10:41:18.187Z,49.14
2019-05-06T10:42:18.165Z,48.31
2019-05-06T10:43:18.160Z,48.97
2019-05-06T10:44:18.176Z,49.53
2019-05-06T10:45:18.150Z,50.07
2019-05-06T10:46:18.163Z,50.84
2019-05-06T10:47:18.193Z,50.48
2019-05-06T10:48:18.173Z,49.94
2019-05-06T10:49:18.157Z,49.05
2019-05-06T10:50:18.144Z,48.45
2019-05-06T10:51:18.189Z,48.16
2019-05-06T10:52:18.159Z,48.29
2019-05-06T10:53:18.196Z,48.87
2019-05-06T10:54:18.166Z,48.62
2019-05-06T10:55:18.166Z,48.90
2019-05-06T10:56:18.210Z,50.47
2019-05-06T10:57:18.155Z,49.50
2019-05-06T10:58:18.181Z,50.01
2019-05-06T10:59:18.185Z,49.20
2019-05-06T11:00:18.174Z,49.58
2019-05-06T11:01:18.175Z,50.00
2019-05-06T11:02:18.166Z,51.30
2019-05-06T11:03:18.168Z,49.61
2019-05-06T11:04:18.181Z,49.59
2019-05-06T11:05:18.189Z,50.39
2019-05-06T11:06:18.191Z,51.20
2019-05-06T11:07:31.105Z,50.68
2019-05-06T11:08:18.213Z,49.49
2019-05-06T11:09:18.165Z,50.59
2019-05-06T11:10:26.995Z,49.43
2019-05-06T11:11:31.633Z,50.58
2019-05-06T11:12:18.187Z,51.39
2019-05-06T11:13:18.168Z,50.17
2019-05-06T11:14:18.165Z,50.47
2019-05-06T11:15:18.200Z,51.28
2019-05-06T11:16:18.206Z,49.52
2019-05-06T11:17:18.201Z,49.38
2019-05-06T11:18:18.237Z,50.09
2019-05-06T11:19:18.172Z,50.21
2019-05-06T11:20:18.183Z,50.20
2019-05-06T11:21:18.159Z,50.21
2019-05-06T11:22:21.438Z,49.34
2019-05-06T11:23:18.229Z,49.51
2019-05-06T11:24:18.175Z,49.73
2019-05-06T11:25:18.175Z,49.39
2019-05-06T11:26:18.184Z,49.31
2019-05-06T11:27:28.960Z,49.92
2019-05-06T11:28:18.225Z,50.02
2019-05-06T11:29:18.235Z,49.32
2019-05-06T11:30:18.174Z,48.84
2019-05-06T11:31:18.214Z,49.04
2019-05-06T11:32:21.040Z,49.81
2019-05-06T11:33:18.175Z,49.34
2019-05-06T11:34:18.229Z,49.06
2019-05-06T11:35:18.227Z,48.91
2019-05-06T11:36:18.207Z,49.91
2019-05-06T11:37:18.193Z,50.06
2019-05-06T11:38:18.193Z,49.62
2019-05-06T11:39:18.149Z,49.27
2019-05-06T11:40:18.233Z,49.83
2019-05-06T11:41:18.238Z,49.77
2019-05-06T11:42:25.217Z,49.61
2019-05-06T11:43:18.196Z,50.21
2019-05-06T11:44:18.260Z,50.57
2019-05-06T11:45:18.183Z,49.75
2019-05-06T11:46:18.213Z,50.69
2019-05-06T11:47:18.190Z,50.29
2019-05-06T11:48:18.174Z,50.03
2019-05-06T11:49:18.220Z,50.69
2019-05-06T11:50:18.181Z,49.50
2019-05-06T11:51:18.262Z,49.66
2019-05-06T11:52:18.193Z,49.56
2019-05-06T11:53:18.229Z,49.95
2019-05-06T11:54:20.776Z,49.12
2019-05-06T11:55:28.911Z,49.31
2019-05-06T11:56:18.198Z,49.12
2019-05-06T11:57:18.205Z,51.50
2019-05-06T11:58:18.247Z,51.01
2019-05-06T11:59:18.194Z,50.33
2019-05-06T12:00:18.212Z,50.04
2019-05-06T12:01:18.263Z,48.82
2019-05-06T12:02:18.184Z,48.60
2019-05-06T12:03:18.191Z,48.42
2019-05-06T12:04:18.212Z,47.92
2019-05-06T12:05:18.242Z,48.10
2019-05-06T12:06:18.216Z,47.67
2019-05-06T12:07:18.231Z,48.02
2019-05-06T12:08:18.253Z,47.39
2019-05-06T12:09:18.233Z,46.86
2019-05-06T12:10:18.227Z,46.00
2019-05-06T12:11:18.253Z,46.24
2019-05-06T12:12:18.220Z,47.32
2019-05-06T12:13:18.216Z,46.73
2019-05-06T12:14:18.231Z,45.97
2019-05-06T12:15:18.197Z,46.93
2019-05-06T12:16:18.251Z,46.84
2019-05-06T12:17:18.246Z,46.50
2019-05-06T12:18:18.233Z,47.86
2019-05-06T12:19:18.216Z,46.86
2019-05-06T12:20:18.278Z,46.87
2019-05-06T12:21:19.260Z,45.31
2019-05-06T12:22:18.225Z,46.74
2019-05-06T12:23:18.286Z,45.08
2019-05-06T12:24:18.233Z,45.16
2019-05-06T12:25:18.222Z,44.78
2019-05-06T12:26:18.260Z,45.35
2019-05-06T12:27:18.226Z,44.96
2019-05-06T12:28:18.220Z,43.89
2019-05-06T12:29:18.285Z,45.23
2019-05-06T12:30:18.280Z,46.42
2019-05-06T12:31:18.231Z,44.84
2019-05-06T12:32:18.221Z,45.16
2019-05-06T12:33:18.251Z,46.12
2019-05-06T12:34:18.261Z,46.43
2019-05-06T12:35:18.199Z,46.36
2019-05-06T12:36:18.331Z,46.56
2019-05-06T12:37:18.243Z,44.89
2019-05-06T12:38:30.106Z,46.18
2019-05-06T12:39:19.805Z,44.97
2019-05-06T12:40:18.239Z,44.27
2019-05-06T12:41:18.248Z,45.60
2019-05-06T12:42:18.248Z,46.28
2019-05-06T12:43:18.246Z,45.72
2019-05-06T12:44:18.273Z,44.93
2019-05-06T12:45:18.248Z,44.77
2019-05-06T12:46:18.240Z,44.08
2019-05-06T12:47:18.290Z,44.08
2019-05-06T12:48:18.241Z,43.99
2019-05-06T12:49:18.260Z,43.16
2019-05-06T12:50:18.218Z,44.24
2019-05-06T12:51:18.238Z,43.98
2019-05-06T12:52:18.294Z,43.62
2019-05-06T12:53:18.272Z,44.58